Time;durP1;ratioP1;P1;durP2;ratioP2;P2;SDS_P1;SDS_P2;PMS_P1;PMS_P2;Temp;Humidity;BMP_temperature;BMP_pressure;BME280_temperature;BME280_humidity;BME280_pressure;Samples;Min_cycle;Max_cycle;Signal;HPM_P1;HPM_P2
2021/07/22 00:02:24;;;;;;;13.60;10.75;;;;;;;;;;4979919;28;20180;-74
2021/07/22 00:04:50;;;;;;;14.52;11.35;;;;;;;;;;4983519;28;20168;-74
2021/07/22 00:07:15;;;;;;;17.38;11.50;;;;;;;;;;5004940;28;20685;-74
2021/07/22 00:09:40;;;;;;;16.58;11.75;;;;;;;;;;4986826;28;20270;-74
2021/07/22 00:12:09;;;;;;;15.67;11.73;;;;;;;;;;4991723;28;20176;-74
2021/07/22 00:14:35;;;;;;;14.52;11.80;;;;;;;;;;4990718;28;20449;-75
2021/07/22 00:17:04;;;;;;;16.88;12.52;;;;;;;;;;4992072;28;20259;-75
2021/07/22 00:19:30;;;;;;;15.82;11.85;;;;;;;;;;4988802;28;20545;-72
2021/07/22 00:21:55;;;;;;;18.00;12.75;;;;;;;;;;4990979;28;20178;-72
2021/07/22 00:24:20;;;;;;;15.77;11.40;;;;;;;;;;4991765;28;20222;-72
2021/07/22 00:26:45;;;;;;;17.20;12.40;;;;;;;;;;4988445;28;20207;-72
2021/07/22 00:29:11;;;;;;;17.17;11.37;;;;;;;;;;4997589;28;20769;-73
2021/07/22 00:31:36;;;;;;;16.37;12.30;;;;;;;;;;4981239;28;20426;-75
2021/07/22 00:34:01;;;;;;;14.48;11.43;;;;;;;;;;4986066;28;20903;-75
2021/07/22 00:36:26;;;;;;;20.77;13.27;;;;;;;;;;4972644;28;20643;-72
2021/07/22 00:38:51;;;;;;;17.57;12.73;;;;;;;;;;4983066;28;20433;-72
2021/07/22 00:41:17;;;;;;;19.95;14.05;;;;;;;;;;4986886;28;20433;-75
2021/07/22 00:43:42;;;;;;;22.40;14.20;;;;;;;;;;4988609;28;20207;-73
2021/07/22 00:46:08;;;;;;;18.67;13.30;;;;;;;;;;4989757;28;20464;-73
2021/07/22 00:48:33;;;;;;;20.92;13.82;;;;;;;;;;4984140;28;20648;-74
2021/07/22 00:50:58;;;;;;;19.08;13.68;;;;;;;;;;4988530;28;20258;-73
2021/07/22 00:53:23;;;;;;;18.65;13.18;;;;;;;;;;4983316;28;20204;-75
2021/07/22 00:55:48;;;;;;;20.17;14.43;;;;;;;;;;4990608;28;20222;-72
2021/07/22 00:58:13;;;;;;;18.73;14.20;;;;;;;;;;4983076;28;20942;-72
2021/07/22 01:00:39;;;;;;;20.87;11.93;;;;;;;;;;4981460;28;20215;-75
2021/07/22 01:03:04;;;;;;;17.97;13.30;;;;;;;;;;4989347;28;20837;-75
2021/07/22 01:05:30;;;;;;;21.73;15.02;;;;;;;;;;4990111;28;20620;-75
2021/07/22 01:07:55;;;;;;;18.65;13.00;;;;;;;;;;4991359;28;20267;-74
2021/07/22 01:10:20;;;;;;;21.30;12.80;;;;;;;;;;4981036;28;20188;-74
2021/07/22 01:12:45;;;;;;;19.20;14.55;;;;;;;;;;4990060;28;20445;-74
2021/07/22 01:15:11;;;;;;;20.33;13.80;;;;;;;;;;5002398;28;20176;-74
2021/07/22 01:17:42;;;;;;;20.75;14.63;;;;;;;;;;4988160;28;20846;-74
2021/07/22 01:20:10;;;;;;;24.75;15.13;;;;;;;;;;4989386;28;20175;-74
2021/07/22 01:22:35;;;;;;;19.55;14.35;;;;;;;;;;4984526;28;20179;-74
2021/07/22 01:25:00;;;;;;;19.95;14.35;;;;;;;;;;4986269;28;20168;-74
2021/07/22 01:27:25;;;;;;;22.13;14.50;;;;;;;;;;4993805;28;20696;-75
2021/07/22 01:29:51;;;;;;;21.03;14.50;;;;;;;;;;4981430;28;20485;-75
2021/07/22 01:32:16;;;;;;;22.50;15.88;;;;;;;;;;4989242;28;20520;-76
2021/07/22 01:34:41;;;;;;;24.40;14.63;;;;;;;;;;4992981;28;20653;-75
2021/07/22 01:37:06;;;;;;;21.20;14.73;;;;;;;;;;4993102;28;20179;-75
2021/07/22 01:39:31;;;;;;;24.17;14.90;;;;;;;;;;4993869;28;20556;-76
2021/07/22 01:41:57;;;;;;;22.48;14.98;;;;;;;;;;4992513;28;20520;-75
2021/07/22 01:44:22;;;;;;;20.55;14.55;;;;;;;;;;4989544;28;20207;-76
2021/07/22 01:46:47;;;;;;;21.17;13.68;;;;;;;;;;4990901;28;20669;-76
2021/07/22 01:49:12;;;;;;;20.03;14.30;;;;;;;;;;4993263;28;20242;-75
2021/07/22 01:51:37;;;;;;;20.07;13.17;;;;;;;;;;5008996;28;20425;-76
2021/07/22 01:54:02;;;;;;;20.60;14.70;;;;;;;;;;4986008;28;20511;-75
2021/07/22 01:56:28;;;;;;;19.90;14.07;;;;;;;;;;4992513;28;20187;-76
2021/07/22 01:58:53;;;;;;;19.90;14.60;;;;;;;;;;4976597;28;20959;-76
2021/07/22 02:01:18;;;;;;;21.38;13.80;;;;;;;;;;4992245;28;20421;-76
2021/07/22 02:03:43;;;;;;;21.10;15.77;;;;;;;;;;4992004;28;20243;-76
2021/07/22 02:06:09;;;;;;;22.02;14.90;;;;;;;;;;4992160;28;20180;-77
2021/07/22 02:08:34;;;;;;;19.48;14.82;;;;;;;;;;4989076;28;20183;-77
2021/07/22 02:11:01;;;;;;;20.73;15.68;;;;;;;;;;4991453;28;20582;-77
2021/07/22 02:13:26;;;;;;;22.70;16.10;;;;;;;;;;4993021;28;20198;-75
2021/07/22 02:15:51;;;;;;;25.67;14.77;;;;;;;;;;4992886;28;20211;-76
2021/07/22 02:18:17;;;;;;;23.33;15.33;;;;;;;;;;4993545;28;20425;-77
2021/07/22 02:20:42;;;;;;;26.45;16.48;;;;;;;;;;4993630;28;20448;-76
2021/07/22 02:23:07;;;;;;;24.55;16.45;;;;;;;;;;4991991;28;20309;-76
2021/07/22 02:25:34;;;;;;;21.38;15.82;;;;;;;;;;4992853;28;20189;-76
2021/07/22 02:27:59;;;;;;;23.88;14.45;;;;;;;;;;4994301;28;20186;-77
2021/07/22 02:30:24;;;;;;;22.90;16.05;;;;;;;;;;4993271;28;20175;-77
2021/07/22 02:32:49;;;;;;;25.27;17.27;;;;;;;;;;4993576;28;20202;-76
2021/07/22 02:35:14;;;;;;;23.08;16.25;;;;;;;;;;4992630;28;20195;-76
2021/07/22 02:37:39;;;;;;;23.92;16.23;;;;;;;;;;4992410;28;20187;-76
2021/07/22 02:40:05;;;;;;;23.90;15.82;;;;;;;;;;5008190;28;20266;-76
2021/07/22 02:42:30;;;;;;;22.80;15.65;;;;;;;;;;4995113;28;20568;-76
2021/07/22 02:44:55;;;;;;;24.77;16.63;;;;;;;;;;4980210;28;20567;-76
2021/07/22 02:47:21;;;;;;;26.50;18.05;;;;;;;;;;5006199;28;20429;-76
2021/07/22 02:49:46;;;;;;;27.20;17.10;;;;;;;;;;4991939;28;20253;-75
2021/07/22 02:52:12;;;;;;;24.80;16.92;;;;;;;;;;4994679;28;20520;-76
2021/07/22 02:54:37;;;;;;;24.65;16.50;;;;;;;;;;5010080;28;20318;-73
2021/07/22 02:57:02;;;;;;;24.43;16.00;;;;;;;;;;4985912;28;20238;-75
2021/07/22 02:59:27;;;;;;;24.67;17.25;;;;;;;;;;4995332;28;20433;-75
2021/07/22 03:01:52;;;;;;;24.85;16.75;;;;;;;;;;4995862;28;20191;-75
2021/07/22 03:04:18;;;;;;;26.60;17.87;;;;;;;;;;4989980;28;20199;-76
2021/07/22 03:06:43;;;;;;;26.08;18.08;;;;;;;;;;4995240;28;20436;-76
2021/07/22 03:09:08;;;;;;;25.48;16.73;;;;;;;;;;4992485;28;20183;-76
2021/07/22 03:11:33;;;;;;;22.58;16.50;;;;;;;;;;4986188;28;20202;-76
2021/07/22 03:13:58;;;;;;;28.45;19.77;;;;;;;;;;4983892;28;20341;-75
2021/07/22 03:16:24;;;;;;;25.83;17.88;;;;;;;;;;4992305;28;20428;-75
2021/07/22 03:18:49;;;;;;;27.50;18.38;;;;;;;;;;4992615;28;20186;-74
2021/07/22 03:21:14;;;;;;;24.75;17.17;;;;;;;;;;4991714;28;20198;-75
2021/07/22 03:23:39;;;;;;;30.20;19.52;;;;;;;;;;4978408;28;20216;-75
2021/07/22 03:26:05;;;;;;;25.70;18.53;;;;;;;;;;4981481;28;20184;-75
2021/07/22 03:28:30;;;;;;;26.75;17.95;;;;;;;;;;4987729;28;20464;-75
2021/07/22 03:30:55;;;;;;;26.67;18.30;;;;;;;;;;4992294;28;20183;-75
2021/07/22 03:33:20;;;;;;;30.75;19.80;;;;;;;;;;4983903;28;20199;-76
2021/07/22 03:35:45;;;;;;;27.15;17.63;;;;;;;;;;4982293;28;20200;-76
2021/07/22 03:38:10;;;;;;;26.13;16.88;;;;;;;;;;4987303;28;20705;-76
2021/07/22 03:40:36;;;;;;;25.50;17.35;;;;;;;;;;4988133;28;20179;-75
2021/07/22 03:43:01;;;;;;;23.75;16.70;;;;;;;;;;4978677;28;20230;-75
2021/07/22 03:45:26;;;;;;;31.00;17.65;;;;;;;;;;4987983;28;20704;-74
2021/07/22 03:47:51;;;;;;;27.20;18.25;;;;;;;;;;4991461;28;20680;-76
2021/07/22 03:50:16;;;;;;;29.77;19.50;;;;;;;;;;4982693;28;20218;-74
2021/07/22 03:52:42;;;;;;;28.57;19.83;;;;;;;;;;4990423;28;20832;-74
2021/07/22 03:55:07;;;;;;;23.77;18.60;;;;;;;;;;4991481;28;20507;-76
2021/07/22 03:57:33;;;;;;;28.70;18.80;;;;;;;;;;5005958;28;20602;-75
2021/07/22 03:59:58;;;;;;;24.00;16.23;;;;;;;;;;4988942;28;20176;-76
2021/07/22 04:02:23;;;;;;;26.40;17.65;;;;;;;;;;4983507;28;20871;-74
2021/07/22 04:04:48;;;;;;;25.27;17.42;;;;;;;;;;5002853;28;20188;-76
2021/07/22 04:07:13;;;;;;;26.30;17.63;;;;;;;;;;4991236;28;20183;-76
2021/07/22 04:09:40;;;;;;;26.90;18.90;;;;;;;;;;4999759;28;21164;-76
2021/07/22 04:12:05;;;;;;;30.73;19.30;;;;;;;;;;4983323;28;20181;-75
2021/07/22 04:14:30;;;;;;;23.77;16.70;;;;;;;;;;4991249;28;20207;-76
2021/07/22 04:16:55;;;;;;;29.80;17.75;;;;;;;;;;4984585;28;20689;-75
2021/07/22 04:19:21;;;;;;;26.23;17.63;;;;;;;;;;4988886;28;20176;-75
2021/07/22 04:21:46;;;;;;;27.88;18.88;;;;;;;;;;4991609;28;20499;-75
2021/07/22 04:24:11;;;;;;;26.45;17.65;;;;;;;;;;5005894;28;20215;-75
2021/07/22 04:26:36;;;;;;;27.10;18.43;;;;;;;;;;4984003;28;20184;-76
2021/07/22 04:29:01;;;;;;;26.63;16.97;;;;;;;;;;5004840;28;20429;-75
2021/07/22 04:31:27;;;;;;;24.00;18.35;;;;;;;;;;4988981;28;20411;-75
2021/07/22 04:33:52;;;;;;;26.98;18.58;;;;;;;;;;4985916;28;20700;-76
2021/07/22 04:36:17;;;;;;;27.07;18.07;;;;;;;;;;4991965;28;20219;-76
2021/07/22 04:38:42;;;;;;;27.77;18.50;;;;;;;;;;4989305;28;20425;-76
2021/07/22 04:41:07;;;;;;;26.75;17.65;;;;;;;;;;4990869;28;20172;-75
2021/07/22 04:43:33;;;;;;;21.55;17.02;;;;;;;;;;4991059;28;20575;-76
2021/07/22 04:46:02;;;;;;;26.70;17.02;;;;;;;;;;4988896;28;20215;-74
2021/07/22 04:48:27;;;;;;;24.23;16.55;;;;;;;;;;4989055;28;20187;-74
2021/07/22 04:50:52;;;;;;;21.23;15.63;;;;;;;;;;4989488;28;20180;-74
2021/07/22 04:53:17;;;;;;;24.00;15.90;;;;;;;;;;4988088;28;20689;-75
2021/07/22 04:55:43;;;;;;;23.50;17.83;;;;;;;;;;4982197;28;20216;-75
2021/07/22 04:58:08;;;;;;;19.63;15.55;;;;;;;;;;4992446;28;20496;-75
2021/07/22 05:00:33;;;;;;;21.93;16.67;;;;;;;;;;4986307;28;20192;-75
2021/07/22 05:02:58;;;;;;;20.88;14.82;;;;;;;;;;4985376;28;20527;-75
2021/07/22 05:05:24;;;;;;;22.30;15.23;;;;;;;;;;5005978;28;20180;-75
2021/07/22 05:07:50;;;;;;;20.80;15.48;;;;;;;;;;4983704;28;20191;-76
2021/07/22 05:10:15;;;;;;;21.87;14.40;;;;;;;;;;4991010;28;20180;-75
2021/07/22 05:12:40;;;;;;;24.50;17.25;;;;;;;;;;4988143;28;20508;-75
2021/07/22 05:15:05;;;;;;;25.87;18.03;;;;;;;;;;4983505;28;20183;-75
2021/07/22 05:17:31;;;;;;;23.05;16.13;;;;;;;;;;4991382;28;20457;-75
2021/07/22 05:19:56;;;;;;;18.40;14.63;;;;;;;;;;4990550;28;20657;-75
2021/07/22 05:22:23;;;;;;;22.85;16.13;;;;;;;;;;4991172;28;20508;-75
2021/07/22 05:24:49;;;;;;;20.35;15.45;;;;;;;;;;4988030;28;20226;-75
2021/07/22 05:27:15;;;;;;;21.17;15.70;;;;;;;;;;4985209;28;20653;-75
2021/07/22 05:29:40;;;;;;;21.88;15.95;;;;;;;;;;4984157;28;20233;-76
2021/07/22 05:32:06;;;;;;;22.02;16.40;;;;;;;;;;4990414;28;20190;-76
2021/07/22 05:34:31;;;;;;;20.45;14.65;;;;;;;;;;4990433;28;20625;-76
2021/07/22 05:36:56;;;;;;;21.00;15.40;;;;;;;;;;4987653;28;20676;-75
2021/07/22 05:39:21;;;;;;;21.65;16.35;;;;;;;;;;4988932;28;20429;-74
2021/07/22 05:41:47;;;;;;;17.80;13.73;;;;;;;;;;4987975;28;20180;-74
2021/07/22 05:44:12;;;;;;;18.05;13.85;;;;;;;;;;4988437;28;20499;-74
2021/07/22 05:46:37;;;;;;;19.90;13.88;;;;;;;;;;4988487;28;20183;-75
2021/07/22 05:49:02;;;;;;;23.73;13.50;;;;;;;;;;4988022;28;20195;-74
2021/07/22 05:51:31;;;;;;;19.15;13.55;;;;;;;;;;4988777;28;20866;-75
2021/07/22 05:53:56;;;;;;;16.10;13.00;;;;;;;;;;4987842;28;20650;-75
2021/07/22 05:56:21;;;;;;;16.70;13.80;;;;;;;;;;4991078;28;20235;-74
2021/07/22 05:58:46;;;;;;;15.82;12.75;;;;;;;;;;4987536;28;20183;-74
2021/07/22 06:01:11;;;;;;;17.60;12.82;;;;;;;;;;4987836;28;20180;-75
2021/07/22 06:03:37;;;;;;;16.27;12.27;;;;;;;;;;4989762;28;20249;-75
2021/07/22 06:06:05;;;;;;;15.15;12.90;;;;;;;;;;4995367;28;20215;-74
2021/07/22 06:08:31;;;;;;;16.88;11.30;;;;;;;;;;4981154;28;20179;-75
2021/07/22 06:10:56;;;;;;;15.27;11.75;;;;;;;;;;4981410;28;20184;-75
2021/07/22 06:13:21;;;;;;;13.45;12.05;;;;;;;;;;4988913;28;20207;-75
2021/07/22 06:15:46;;;;;;;12.63;10.52;;;;;;;;;;4984417;28;20278;-75
2021/07/22 06:18:11;;;;;;;17.37;11.53;;;;;;;;;;4993056;28;20183;-74
2021/07/22 06:20:39;;;;;;;13.73;11.75;;;;;;;;;;4988167;28;20426;-74
2021/07/22 06:23:04;;;;;;;13.57;10.25;;;;;;;;;;4983096;28;20208;-75
2021/07/22 06:25:29;;;;;;;16.33;10.97;;;;;;;;;;4982720;28;20234;-75
2021/07/22 06:27:55;;;;;;;16.38;11.73;;;;;;;;;;4993174;28;20973;-74
2021/07/22 06:30:20;;;;;;;14.90;11.50;;;;;;;;;;4991666;28;20179;-75
2021/07/22 06:32:45;;;;;;;13.40;9.63;;;;;;;;;;4994962;28;20199;-74
2021/07/22 06:35:10;;;;;;;14.30;10.40;;;;;;;;;;4983596;28;20672;-75
2021/07/22 06:37:43;;;;;;;12.68;9.77;;;;;;;;;;4990977;28;20461;-74
2021/07/22 06:40:08;;;;;;;11.68;8.90;;;;;;;;;;4989930;28;20183;-75
2021/07/22 06:42:33;;;;;;;11.60;9.23;;;;;;;;;;4993385;28;20242;-75
2021/07/22 06:44:59;;;;;;;14.27;9.07;;;;;;;;;;4985910;28;20176;-74
2021/07/22 06:47:24;;;;;;;12.20;9.55;;;;;;;;;;4988216;28;20402;-74
2021/07/22 06:49:49;;;;;;;9.63;8.20;;;;;;;;;;4992279;28;20187;-74
2021/07/22 06:52:14;;;;;;;12.02;8.90;;;;;;;;;;4986760;28;20432;-75
2021/07/22 06:54:40;;;;;;;12.60;8.03;;;;;;;;;;4994046;28;20207;-74
2021/07/22 06:57:05;;;;;;;10.65;7.90;;;;;;;;;;4980920;28;20479;-74
2021/07/22 06:59:30;;;;;;;11.65;6.63;;;;;;;;;;4985072;28;20177;-73
2021/07/22 07:01:55;;;;;;;12.43;7.50;;;;;;;;;;4981683;28;20192;-73
2021/07/22 07:04:20;;;;;;;8.53;6.83;;;;;;;;;;4993775;28;20221;-73
2021/07/22 07:06:46;;;;;;;11.83;7.13;;;;;;;;;;4992333;28;20402;-73
2021/07/22 07:09:11;;;;;;;9.53;7.03;;;;;;;;;;4992803;28;20556;-73
2021/07/22 07:11:36;;;;;;;11.50;7.57;;;;;;;;;;4994545;28;20414;-73
2021/07/22 07:14:01;;;;;;;24.63;8.60;;;;;;;;;;4990824;28;20857;-73
2021/07/22 07:16:26;;;;;;;13.48;8.10;;;;;;;;;;4978684;28;20455;-74
2021/07/22 07:18:51;;;;;;;10.17;9.10;;;;;;;;;;4993827;28;20180;-73
2021/07/22 07:21:17;;;;;;;9.90;6.97;;;;;;;;;;4992289;28;20907;-73
2021/07/22 07:23:42;;;;;;;7.60;6.38;;;;;;;;;;4996817;23;20593;-76
2021/07/22 07:26:08;;;;;;;8.25;6.28;;;;;;;;;;4972533;28;20180;-76
2021/07/22 07:28:33;;;;;;;10.40;6.32;;;;;;;;;;4972465;28;20169;-76
2021/07/22 07:30:58;;;;;;;7.80;5.90;;;;;;;;;;4969318;28;20211;-76
2021/07/22 07:33:23;;;;;;;8.97;5.83;;;;;;;;;;4972285;28;20509;-76
2021/07/22 07:35:49;;;;;;;10.77;6.88;;;;;;;;;;4956178;28;20490;-75
2021/07/22 07:38:15;;;;;;;8.50;4.97;;;;;;;;;;4956260;28;20174;-75
2021/07/22 07:40:40;;;;;;;8.90;6.03;;;;;;;;;;4954863;28;20551;-75
2021/07/22 07:43:05;;;;;;;12.30;5.80;;;;;;;;;;4955091;28;20181;-75
2021/07/22 07:45:31;;;;;;;9.82;6.22;;;;;;;;;;4954803;28;20513;-76
2021/07/22 07:47:56;;;;;;;9.57;5.90;;;;;;;;;;4955563;28;20189;-76
2021/07/22 07:50:21;;;;;;;7.72;6.15;;;;;;;;;;4953846;28;20193;-75
2021/07/22 07:52:47;;;;;;;9.45;6.03;;;;;;;;;;4969671;28;20181;-76
2021/07/22 07:55:13;;;;;;;7.45;5.43;;;;;;;;;;4953998;28;20679;-76
2021/07/22 07:57:38;;;;;;;7.60;5.80;;;;;;;;;;4957084;28;20208;-76
2021/07/22 08:00:04;;;;;;;6.43;5.57;;;;;;;;;;4969252;28;20177;-76
2021/07/22 08:02:29;;;;;;;9.27;6.00;;;;;;;;;;4954080;28;20229;-76
2021/07/22 08:04:56;;;;;;;7.05;5.97;;;;;;;;;;4968839;28;20192;-75
2021/07/22 08:07:22;;;;;;;6.38;5.15;;;;;;;;;;4953757;28;20776;-75
2021/07/22 08:09:47;;;;;;;6.00;5.40;;;;;;;;;;4958854;28;20271;-76
2021/07/22 08:12:13;;;;;;;9.38;5.43;;;;;;;;;;4977091;28;20426;-75
2021/07/22 08:14:38;;;;;;;8.00;5.65;;;;;;;;;;4966474;28;20209;-76
2021/07/22 08:17:04;;;;;;;7.87;5.50;;;;;;;;;;4968582;28;20241;-75
2021/07/22 08:19:29;;;;;;;9.30;5.63;;;;;;;;;;4950411;28;20427;-75
2021/07/22 08:21:54;;;;;;;7.57;5.88;;;;;;;;;;4961181;28;20639;-76
2021/07/22 08:24:19;;;;;;;5.90;5.30;;;;;;;;;;4952376;28;20212;-76
2021/07/22 08:26:44;;;;;;;6.37;5.30;;;;;;;;;;4967893;28;20870;-76
2021/07/22 08:29:10;;;;;;;12.33;5.83;;;;;;;;;;4957387;28;20177;-76
2021/07/22 08:31:35;;;;;;;7.95;5.45;;;;;;;;;;4954046;28;20692;-76
2021/07/22 08:34:00;;;;;;;6.63;5.90;;;;;;;;;;4954904;28;20216;-76
2021/07/22 08:36:26;;;;;;;6.23;5.60;;;;;;;;;;4952694;28;20259;-75
2021/07/22 08:38:51;;;;;;;7.70;5.90;;;;;;;;;;4959912;28;20991;-76
2021/07/22 08:41:16;;;;;;;10.70;6.00;;;;;;;;;;4956057;28;20545;-76
2021/07/22 08:43:42;;;;;;;7.55;5.63;;;;;;;;;;4953480;28;20310;-76
2021/07/22 08:46:07;;;;;;;6.95;5.28;;;;;;;;;;4962010;28;20216;-76
2021/07/22 08:48:35;;;;;;;7.17;5.57;;;;;;;;;;4955297;28;20638;-76
2021/07/22 08:51:01;;;;;;;7.30;5.28;;;;;;;;;;4955285;28;20219;-75
2021/07/22 08:53:27;;;;;;;8.35;5.88;;;;;;;;;;4953385;28;20228;-76
2021/07/22 08:55:53;;;;;;;5.30;4.80;;;;;;;;;;4948250;28;20681;-75
2021/07/22 08:58:19;;;;;;;7.60;5.82;;;;;;;;;;4952498;28;20211;-76
2021/07/22 09:00:44;;;;;;;8.25;5.25;;;;;;;;;;4951492;28;20220;-76
2021/07/22 09:03:13;;;;;;;4.93;4.28;;;;;;;;;;4956136;28;20587;-75
2021/07/22 09:05:38;;;;;;;6.55;4.35;;;;;;;;;;4953241;28;20598;-75
2021/07/22 09:08:05;;;;;;;8.75;4.90;;;;;;;;;;4955477;28;20204;-76
2021/07/22 09:10:30;;;;;;;9.13;5.20;;;;;;;;;;4951068;28;20267;-74
2021/07/22 09:12:55;;;;;;;5.57;4.38;;;;;;;;;;4965650;28;20276;-76
2021/07/22 09:15:27;;;;;;;6.93;4.60;;;;;;;;;;4950949;28;20292;-75
2021/07/22 09:17:52;;;;;;;6.80;4.60;;;;;;;;;;4949345;28;20181;-76
2021/07/22 09:20:26;;;;;;;7.65;4.50;;;;;;;;;;4968013;28;20717;-76
2021/07/22 09:22:52;;;;;;;5.05;4.55;;;;;;;;;;4954658;28;20649;-76
2021/07/22 09:25:18;;;;;;;5.90;5.32;;;;;;;;;;4950165;28;20299;-76
2021/07/22 09:27:44;;;;;;;7.90;4.63;;;;;;;;;;4951601;28;20176;-76
2021/07/22 09:30:16;;;;;;;5.45;4.47;;;;;;;;;;4952188;28;20669;-74
2021/07/22 09:32:42;;;;;;;4.72;4.22;;;;;;;;;;4950525;28;20254;-76
2021/07/22 09:35:21;;;;;;;5.80;4.47;;;;;;;;;;4949378;28;20209;-76
2021/07/22 09:37:49;;;;;;;5.57;4.35;;;;;;;;;;4949383;28;20304;-76
2021/07/22 09:40:17;;;;;;;5.88;4.78;;;;;;;;;;4951397;28;20669;-76
2021/07/22 09:42:43;;;;;;;4.82;4.20;;;;;;;;;;4948013;28;20189;-76
2021/07/22 09:45:12;;;;;;;4.95;4.45;;;;;;;;;;4951720;28;20196;-75
2021/07/22 09:47:38;;;;;;;5.32;4.18;;;;;;;;;;4948964;28;20203;-75
2021/07/22 09:50:16;;;;;;;4.70;4.20;;;;;;;;;;4951983;28;20181;-75
2021/07/22 09:52:42;;;;;;;7.28;4.65;;;;;;;;;;4951499;28;20216;-76
2021/07/22 09:55:28;;;;;;;6.85;4.43;;;;;;;;;;4972424;28;20688;-76
2021/07/22 09:57:54;;;;;;;5.90;4.95;;;;;;;;;;4967591;28;20599;-75
2021/07/22 10:00:20;;;;;;;8.27;4.50;;;;;;;;;;4952745;29;20177;-75
2021/07/22 10:02:45;;;;;;;5.88;4.53;;;;;;;;;;4953652;28;20192;-76
2021/07/22 10:05:12;;;;;;;6.18;4.88;;;;;;;;;;4951977;28;20295;-76
2021/07/22 10:07:39;;;;;;;7.07;4.57;;;;;;;;;;4956830;28;20203;-76
2021/07/22 10:10:05;;;;;;;4.93;4.43;;;;;;;;;;4951722;28;20188;-76
2021/07/22 10:12:30;;;;;;;4.40;4.00;;;;;;;;;;4953875;28;20586;-76
2021/07/22 10:14:57;;;;;;;5.07;4.47;;;;;;;;;;4954277;28;20189;-76
2021/07/22 10:17:27;;;;;;;6.85;5.13;;;;;;;;;;4947888;28;20831;-76
2021/07/22 10:19:55;;;;;;;10.48;4.97;;;;;;;;;;4959753;28;20353;-76
2021/07/22 10:22:20;;;;;;;12.30;5.28;;;;;;;;;;4954555;28;20177;-76
2021/07/22 10:24:45;;;;;;;5.70;4.30;;;;;;;;;;4916920;28;1049893;-75
2021/07/22 10:27:10;;;;;;;5.03;4.20;;;;;;;;;;4953948;28;20211;-76
2021/07/22 10:29:36;;;;;;;4.10;3.67;;;;;;;;;;4957768;28;20717;-77
2021/07/22 10:32:02;;;;;;;6.95;4.40;;;;;;;;;;4952810;28;20223;-76
2021/07/22 10:34:27;;;;;;;4.50;3.83;;;;;;;;;;4954610;28;20568;-77
2021/07/22 10:36:52;;;;;;;5.13;4.30;;;;;;;;;;4954584;28;20716;-76
2021/07/22 10:39:37;;;;;;;5.43;4.13;;;;;;;;;;4970985;28;20181;-76
2021/07/22 10:42:02;;;;;;;4.43;3.67;;;;;;;;;;4956286;28;20190;-74
2021/07/22 10:44:33;;;;;;;5.50;3.80;;;;;;;;;;4955411;28;20221;-77
2021/07/22 10:47:00;;;;;;;5.07;3.75;;;;;;;;;;4958876;28;20430;-76
2021/07/22 10:49:38;;;;;;;4.00;3.70;;;;;;;;;;4953317;28;20189;-78
2021/07/22 10:52:03;;;;;;;6.43;3.45;;;;;;;;;;4954987;29;20272;-77
2021/07/22 10:54:41;;;;;;;3.65;3.08;;;;;;;;;;4954911;28;20291;-77
2021/07/22 10:57:06;;;;;;;6.25;3.40;;;;;;;;;;4972791;28;20208;-76
2021/07/22 10:59:50;;;;;;;3.53;3.00;;;;;;;;;;4968858;28;20189;-77
2021/07/22 11:02:34;;;;;;;4.65;3.33;;;;;;;;;;4957870;28;20207;-78
2021/07/22 11:04:59;;;;;;;5.38;3.08;;;;;;;;;;4954506;28;20235;-78
2021/07/22 11:07:24;;;;;;;5.80;2.90;;;;;;;;;;4956989;28;20539;-77
2021/07/22 11:09:50;;;;;;;3.78;3.20;;;;;;;;;;4955801;28;20193;-76
2021/07/22 11:12:34;;;;;;;5.75;3.80;;;;;;;;;;4966155;28;20558;-77
2021/07/22 11:15:02;;;;;;;4.05;2.95;;;;;;;;;;4953848;28;20299;-78
2021/07/22 11:17:31;;;;;;;4.80;3.35;;;;;;;;;;4955508;28;20573;-75
2021/07/22 11:20:29;;;;;;;3.50;3.20;;;;;;;;;;4953871;28;20243;-77
2021/07/22 11:22:55;;;;;;;5.57;2.90;;;;;;;;;;4940258;28;20279;-77
2021/07/22 11:25:21;;;;;;;3.45;3.05;;;;;;;;;;4954526;28;20252;-78
2021/07/22 11:27:47;;;;;;;7.72;3.28;;;;;;;;;;4969997;28;20189;-77
2021/07/22 11:30:13;;;;;;;3.00;2.70;;;;;;;;;;4967213;28;20207;-77
2021/07/22 11:32:38;;;;;;;3.80;2.92;;;;;;;;;;4950869;28;20185;-77
2021/07/22 11:35:04;;;;;;;3.75;3.17;;;;;;;;;;4950827;28;20201;-78
2021/07/22 11:37:29;;;;;;;4.15;3.10;;;;;;;;;;4949101;28;20219;-77
2021/07/22 11:39:55;;;;;;;3.70;3.10;;;;;;;;;;4950082;28;20696;-79
2021/07/22 11:42:20;;;;;;;4.65;2.67;;;;;;;;;;4953690;28;20459;-76
2021/07/22 11:44:59;;;;;;;3.60;3.30;;;;;;;;;;4950417;28;20704;-76
2021/07/22 11:47:29;;;;;;;5.18;3.08;;;;;;;;;;4971176;28;20569;-79
2021/07/22 11:49:55;;;;;;;5.45;3.13;;;;;;;;;;4961426;28;20288;-78
2021/07/22 11:52:27;;;;;;;3.03;2.70;;;;;;;;;;4959464;28;20208;-79
2021/07/22 11:55:04;;;;;;;3.72;3.08;;;;;;;;;;4957419;28;20237;-77
2021/07/22 11:57:35;;;;;;;4.22;2.85;;;;;;;;;;4955106;28;20201;-77
2021/07/22 12:00:11;;;;;;;4.18;2.92;;;;;;;;;;4953571;28;20184;-77
2021/07/22 12:02:36;;;;;;;3.60;2.78;;;;;;;;;;4966534;28;20177;-77
2021/07/22 12:05:01;;;;;;;5.20;3.40;;;;;;;;;;4958654;28;20688;-78
2021/07/22 12:07:27;;;;;;;5.77;2.90;;;;;;;;;;4960834;28;20662;-78
2021/07/22 12:09:53;;;;;;;4.65;2.65;;;;;;;;;;4959955;28;20419;-78
2021/07/22 12:12:22;;;;;;;3.92;2.72;;;;;;;;;;4956620;28;20551;-78
2021/07/22 12:14:47;;;;;;;3.55;2.80;;;;;;;;;;4955928;28;20260;-78
2021/07/22 12:17:12;;;;;;;3.20;2.90;;;;;;;;;;4971337;28;20576;-79
2021/07/22 12:19:39;;;;;;;3.20;2.50;;;;;;;;;;4971734;28;20201;-78
2021/07/22 12:22:23;;;;;;;6.43;2.70;;;;;;;;;;4971025;28;20650;-79
2021/07/22 12:24:49;;;;;;;4.10;2.65;;;;;;;;;;4966134;28;20619;-78
2021/07/22 12:27:27;;;;;;;3.88;2.47;;;;;;;;;;4958360;28;20188;-79
2021/07/22 12:29:52;;;;;;;4.30;2.88;;;;;;;;;;4965410;28;20188;-78
2021/07/22 12:32:17;;;;;;;3.75;2.45;;;;;;;;;;4954411;28;20530;-79
2021/07/22 12:34:42;;;;;;;3.15;2.60;;;;;;;;;;4953436;28;20209;-76
2021/07/22 12:37:08;;;;;;;3.83;2.65;;;;;;;;;;4955020;28;20287;-75
2021/07/22 12:39:33;;;;;;;5.37;2.80;;;;;;;;;;4952837;28;20181;-77
2021/07/22 12:42:07;;;;;;;2.83;2.60;;;;;;;;;;4952992;28;20581;-75
2021/07/22 12:44:47;;;;;;;3.92;2.70;;;;;;;;;;4952667;28;20445;-76
2021/07/22 12:47:35;;;;;;;6.10;2.78;;;;;;;;;;4960511;28;20208;-77
2021/07/22 12:50:01;;;;;;;3.85;3.22;;;;;;;;;;4957301;28;20267;-77
2021/07/22 12:52:27;;;;;;;5.40;3.20;;;;;;;;;;4956017;28;20197;-77
2021/07/22 12:55:02;;;;;;;3.28;2.55;;;;;;;;;;4954208;28;20400;-77
2021/07/22 12:57:37;;;;;;;3.28;2.42;;;;;;;;;;4950020;28;20211;-77
2021/07/22 13:00:07;;;;;;;2.53;2.00;;;;;;;;;;4966422;28;20673;-77
2021/07/22 13:02:32;;;;;;;4.03;2.60;;;;;;;;;;4949122;29;20535;-77
2021/07/22 13:04:57;;;;;;;4.97;2.53;;;;;;;;;;4946811;28;20205;-79
2021/07/22 13:07:22;;;;;;;2.97;2.67;;;;;;;;;;4959252;28;20189;-80
2021/07/22 13:09:47;;;;;;;3.78;2.50;;;;;;;;;;4953872;28;20307;-79
2021/07/22 13:12:13;;;;;;;2.30;2.10;;;;;;;;;;4953678;28;20204;-79
2021/07/22 13:14:38;;;;;;;4.37;2.37;;;;;;;;;;4952752;28;20260;-78
2021/07/22 13:17:03;;;;;;;6.10;2.73;;;;;;;;;;4953847;28;20196;-79
2021/07/22 13:19:28;;;;;;;2.33;2.13;;;;;;;;;;4954089;28;20208;-78
2021/07/22 13:21:53;;;;;;;2.63;2.43;;;;;;;;;;4952425;28;20173;-78
2021/07/22 13:24:18;;;;;;;4.53;2.30;;;;;;;;;;4953528;28;20216;-77
2021/07/22 13:26:44;;;;;;;4.47;2.07;;;;;;;;;;4955978;28;20553;-78
2021/07/22 13:29:09;;;;;;;5.03;2.47;;;;;;;;;;4954227;28;20267;-76
2021/07/22 13:31:34;;;;;;;3.15;2.58;;;;;;;;;;4964486;28;20201;-77
2021/07/22 13:33:59;;;;;;;2.60;2.35;;;;;;;;;;4952834;28;20208;-77
2021/07/22 13:36:24;;;;;;;4.07;2.67;;;;;;;;;;4964853;28;20204;-77
2021/07/22 13:38:50;;;;;;;3.93;3.10;;;;;;;;;;4950521;29;20483;-78
2021/07/22 13:41:15;;;;;;;4.50;2.53;;;;;;;;;;4953625;28;20621;-78
2021/07/22 13:43:41;;;;;;;4.03;2.70;;;;;;;;;;4953203;28;20201;-77
2021/07/22 13:46:06;;;;;;;3.05;2.50;;;;;;;;;;4952477;28;20232;-78
2021/07/22 13:48:31;;;;;;;5.05;2.90;;;;;;;;;;4953614;28;20197;-77
2021/07/22 13:50:57;;;;;;;3.60;2.40;;;;;;;;;;4961019;28;20641;-78
2021/07/22 13:53:22;;;;;;;3.35;2.50;;;;;;;;;;4964660;28;20206;-77
2021/07/22 13:55:48;;;;;;;5.13;2.53;;;;;;;;;;4969972;28;20269;-77
2021/07/22 13:58:13;;;;;;;3.53;2.73;;;;;;;;;;4966993;28;20173;-77
2021/07/22 14:00:38;;;;;;;3.53;2.80;;;;;;;;;;4959152;28;20240;-79
2021/07/22 14:03:06;;;;;;;4.33;2.67;;;;;;;;;;4952503;28;20420;-78
2021/07/22 14:05:32;;;;;;;4.70;3.03;;;;;;;;;;4953620;28;20631;-78
2021/07/22 14:07:58;;;;;;;4.13;2.50;;;;;;;;;;4953054;28;20282;-78
2021/07/22 14:10:23;;;;;;;3.63;2.70;;;;;;;;;;4954000;28;20670;-77
2021/07/22 14:12:49;;;;;;;3.13;2.03;;;;;;;;;;4946467;28;20185;-77
2021/07/22 14:15:14;;;;;;;4.07;3.00;;;;;;;;;;4955227;28;20292;-77
2021/07/22 14:17:39;;;;;;;6.30;2.43;;;;;;;;;;4962717;28;20539;-77
2021/07/22 14:20:04;;;;;;;2.78;2.33;;;;;;;;;;4951958;29;20177;-75
2021/07/22 14:22:30;;;;;;;3.80;2.58;;;;;;;;;;4951584;28;20628;-77
2021/07/22 14:24:55;;;;;;;3.23;2.50;;;;;;;;;;4952931;28;20213;-77
2021/07/22 14:27:20;;;;;;;4.50;2.20;;;;;;;;;;4955371;28;20308;-76